Time;durP1;ratioP1;P1;durP2;ratioP2;P2;SDS_P1;SDS_P2;PMS_P1;PMS_P2;Temp;Humidity;BMP_temperature;BMP_pressure;BME280_temperature;BME280_humidity;BME280_pressure;Samples;Min_cycle;Max_cycle;Signal;HPM_P1;HPM_P2
2021/06/25 00:01:55;;;;;;;5.28;3.55;;;17.00;35.40;;;;;;4859355;29;20522;-68
2021/06/25 00:04:43;;;;;;;3.10;2.80;;;17.10;34.80;;;;;;4864423;29;20054;-68
2021/06/25 00:07:32;;;;;;;4.28;3.03;;;17.00;34.60;;;;;;4859751;29;20185;-68
2021/06/25 00:10:21;;;;;;;3.00;2.70;;;17.00;34.60;;;;;;4866834;29;20572;-68
2021/06/25 00:13:10;;;;;;;3.42;3.00;;;17.00;34.60;;;;;;4858587;29;20080;-68
2021/06/25 00:15:58;;;;;;;3.17;2.88;;;17.10;32.80;;;;;;4849755;29;20080;-67
2021/06/25 00:18:49;;;;;;;3.97;2.90;;;17.10;32.90;;;;;;4864136;29;20045;-68
2021/06/25 00:21:40;;;;;;;3.22;2.92;;;17.20;33.30;;;;;;4864457;29;20492;-67
2021/06/25 00:24:28;;;;;;;3.17;2.88;;;17.10;31.80;;;;;;4866829;29;20140;-67
2021/06/25 00:27:18;;;;;;;3.80;3.05;;;17.20;32.90;;;;;;4852562;29;20200;-67
2021/06/25 00:30:08;;;;;;;3.75;2.58;;;17.10;31.40;;;;;;4855994;29;20451;-68
2021/06/25 00:32:56;;;;;;;5.15;2.60;;;17.20;32.20;;;;;;4861413;29;20046;-68
2021/06/25 00:35:45;;;;;;;3.75;2.40;;;17.00;33.00;;;;;;4848288;29;20053;-67
2021/06/25 00:38:34;;;;;;;3.05;2.45;;;17.10;33.00;;;;;;4860209;29;20132;-68
2021/06/25 00:41:22;;;;;;;3.20;2.53;;;17.10;33.50;;;;;;4867185;29;20188;-68
2021/06/25 00:44:19;;;;;;;3.13;2.53;;;17.10;34.00;;;;;;4860145;29;20113;-69
2021/06/25 00:47:09;;;;;;;2.97;2.47;;;17.10;34.80;;;;;;4847865;29;20425;-67
2021/06/25 00:49:58;;;;;;;3.75;2.50;;;17.00;34.60;;;;;;4862931;29;20413;-68
2021/06/25 00:52:46;;;;;;;4.35;2.90;;;17.00;37.80;;;;;;4865711;29;20055;-67
2021/06/25 00:55:42;;;;;;;3.10;2.80;;;16.90;37.90;;;;;;4852827;29;20061;-67
2021/06/25 00:58:31;;;;;;;3.22;2.92;;;16.90;39.80;;;;;;4857827;29;20052;-69
2021/06/25 01:01:21;;;;;;;4.90;3.38;;;16.90;40.50;;;;;;4864688;29;20113;-68
2021/06/25 01:04:09;;;;;;;4.60;3.10;;;16.90;42.00;;;;;;4862692;29;20089;-68
2021/06/25 01:06:58;;;;;;;3.50;3.20;;;16.90;43.20;;;;;;4846362;29;20532;-68
2021/06/25 01:09:46;;;;;;;4.53;3.42;;;16.80;44.90;;;;;;4855599;29;20097;-67
2021/06/25 01:12:35;;;;;;;4.25;3.85;;;16.70;47.80;;;;;;4859190;29;20120;-69
2021/06/25 01:15:24;;;;;;;5.35;4.10;;;16.60;49.40;;;;;;4857783;29;20541;-68
2021/06/25 01:18:14;;;;;;;6.07;4.35;;;16.70;51.30;;;;;;4864758;29;20052;-68
2021/06/25 01:21:05;;;;;;;4.38;3.97;;;16.60;51.00;;;;;;4860172;29;20444;-67
2021/06/25 01:23:53;;;;;;;5.07;4.57;;;16.60;51.30;;;;;;4858816;29;20049;-68
2021/06/25 01:26:43;;;;;;;4.97;4.47;;;16.60;52.00;;;;;;4846716;29;20048;-67
2021/06/25 01:29:32;;;;;;;5.07;4.55;;;16.60;51.30;;;;;;4860282;29;20246;-68
2021/06/25 01:32:20;;;;;;;6.22;4.80;;;16.60;51.20;;;;;;4859428;29;20520;-67
2021/06/25 01:35:10;;;;;;;5.88;4.32;;;16.60;51.20;;;;;;4857307;29;20418;-67
2021/06/25 01:37:59;;;;;;;7.20;5.07;;;16.60;51.20;;;;;;4860420;29;20210;-68
2021/06/25 01:40:48;;;;;;;10.48;4.88;;;16.60;51.70;;;;;;4865110;29;20051;-68
2021/06/25 01:43:39;;;;;;;6.15;4.75;;;16.60;51.30;;;;;;4867163;29;20057;-69
2021/06/25 01:46:28;;;;;;;6.10;5.20;;;16.60;50.40;;;;;;4847213;29;20072;-68
2021/06/25 01:49:18;;;;;;;5.65;4.95;;;16.60;48.70;;;;;;4863822;29;20500;-68
2021/06/25 01:52:07;;;;;;;5.32;4.80;;;16.70;49.90;;;;;;4866848;29;20144;-69
2021/06/25 01:54:57;;;;;;;8.73;5.05;;;16.70;49.60;;;;;;4860571;29;20045;-66
2021/06/25 01:57:46;;;;;;;5.85;5.25;;;16.80;47.40;;;;;;4861082;29;20052;-67
2021/06/25 02:00:34;;;;;;;6.97;5.05;;;16.50;50.00;;;;;;4861593;29;20053;-68
2021/06/25 02:03:23;;;;;;;5.30;4.53;;;16.40;51.10;;;;;;4863455;29;20060;-68
2021/06/25 02:06:12;;;;;;;4.53;3.75;;;16.20;48.90;;;;;;4853427;29;20065;-68
2021/06/25 02:09:01;;;;;;;4.35;3.95;;;16.20;48.80;;;;;;4863354;29;20109;-68
2021/06/25 02:11:51;;;;;;;4.00;3.60;;;16.30;49.40;;;;;;4863124;29;20063;-67
2021/06/25 02:14:39;;;;;;;6.35;4.18;;;16.40;49.30;;;;;;4861023;29;20204;-68
2021/06/25 02:17:28;;;;;;;5.43;4.00;;;16.30;49.70;;;;;;4854249;29;20061;-67
2021/06/25 02:20:16;;;;;;;5.93;4.40;;;16.20;50.10;;;;;;4854814;29;20049;-68
2021/06/25 02:23:05;;;;;;;4.82;4.20;;;16.30;51.10;;;;;;4861887;29;20109;-68
2021/06/25 02:25:53;;;;;;;4.65;4.25;;;16.30;49.80;;;;;;4852959;29;20115;-67
2021/06/25 02:28:43;;;;;;;4.38;3.28;;;16.20;49.30;;;;;;4863935;29;20054;-67
2021/06/25 02:31:31;;;;;;;3.17;2.70;;;16.20;47.70;;;;;;4866125;29;20136;-65
2021/06/25 02:34:20;;;;;;;3.35;3.05;;;16.10;45.60;;;;;;4862032;29;20072;-67
2021/06/25 02:37:08;;;;;;;4.05;2.80;;;16.10;46.40;;;;;;4851749;29;20072;-67
2021/06/25 02:39:56;;;;;;;3.45;3.00;;;16.20;44.10;;;;;;4859887;29;20178;-65
2021/06/25 02:42:45;;;;;;;3.67;3.08;;;16.20;43.00;;;;;;4861007;29;20049;-66
2021/06/25 02:45:35;;;;;;;3.75;2.95;;;16.30;44.30;;;;;;4853407;29;20057;-67
2021/06/25 02:48:24;;;;;;;3.45;2.78;;;16.30;42.70;;;;;;4864563;29;20056;-67
2021/06/25 02:51:12;;;;;;;3.60;3.30;;;16.30;47.10;;;;;;4859442;29;20063;-67
2021/06/25 02:54:00;;;;;;;7.10;3.55;;;16.40;50.50;;;;;;4863180;29;20500;-66
2021/06/25 02:56:49;;;;;;;5.07;3.78;;;16.40;50.30;;;;;;4846375;29;20936;-66
2021/06/25 02:59:37;;;;;;;5.43;4.13;;;16.30;50.20;;;;;;4859889;29;20128;-67
2021/06/25 03:02:27;;;;;;;7.13;4.63;;;16.30;52.10;;;;;;4861750;29;20438;-66
2021/06/25 03:05:16;;;;;;;6.00;5.40;;;16.20;50.90;;;;;;4856424;29;20540;-67
2021/06/25 03:08:06;;;;;;;6.65;5.55;;;16.30;55.00;;;;;;4850514;29;20048;-67
2021/06/25 03:10:54;;;;;;;7.40;6.15;;;16.30;54.40;;;;;;4856551;29;20053;-67
2021/06/25 03:13:46;;;;;;;8.77;6.65;;;16.20;54.70;;;;;;4861750;29;20508;-66
2021/06/25 03:16:34;;;;;;;11.23;7.50;;;16.30;55.30;;;;;;4847441;29;20049;-66
2021/06/25 03:19:24;;;;;;;8.13;6.65;;;16.20;54.70;;;;;;4857566;29;20125;-67
2021/06/25 03:22:12;;;;;;;8.55;7.68;;;16.40;56.30;;;;;;4861920;29;20057;-67
2021/06/25 03:25:01;;;;;;;8.20;6.97;;;16.50;56.70;;;;;;4860008;29;20110;-67
2021/06/25 03:27:49;;;;;;;8.57;7.68;;;16.20;55.30;;;;;;4861227;29;20161;-67
2021/06/25 03:30:38;;;;;;;11.38;9.30;;;16.20;55.90;;;;;;4859027;29;20205;-67
2021/06/25 03:33:27;;;;;;;11.85;9.02;;;16.10;55.30;;;;;;4862231;29;20085;-67
2021/06/25 03:36:16;;;;;;;9.25;8.23;;;16.10;56.50;;;;;;4851164;29;20469;-67
2021/06/25 03:39:06;;;;;;;9.43;8.50;;;16.10;57.10;;;;;;4867763;29;20052;-67
2021/06/25 03:41:55;;;;;;;8.43;7.53;;;16.20;58.90;;;;;;4864372;29;20057;-67
2021/06/25 03:44:43;;;;;;;10.48;8.88;;;16.10;58.00;;;;;;4858688;29;23873;-67
2021/06/25 03:47:31;;;;;;;9.50;8.50;;;16.20;58.60;;;;;;4860704;29;20061;-67
2021/06/25 03:50:20;;;;;;;9.82;7.47;;;16.20;58.50;;;;;;4863861;29;20084;-68
2021/06/25 03:53:10;;;;;;;10.13;6.55;;;16.00;55.90;;;;;;4864636;29;20045;-67
2021/06/25 03:56:11;;;;;;;8.43;6.25;;;16.10;57.00;;;;;;4850402;29;20061;-67
2021/06/25 03:58:59;;;;;;;6.55;5.93;;;16.00;56.50;;;;;;4861252;29;20106;-66
2021/06/25 04:01:48;;;;;;;8.65;6.35;;;16.10;57.50;;;;;;4848221;29;20061;-67
2021/06/25 04:04:37;;;;;;;8.38;6.28;;;16.10;56.10;;;;;;4867096;29;20049;-67
2021/06/25 04:07:26;;;;;;;7.43;5.90;;;16.20;56.90;;;;;;4851556;29;20049;-67
2021/06/25 04:10:16;;;;;;;7.07;5.70;;;16.20;55.40;;;;;;4859625;29;20048;-67
2021/06/25 04:13:05;;;;;;;6.20;5.32;;;16.20;55.90;;;;;;4859133;29;20193;-67
2021/06/25 04:15:54;;;;;;;8.48;5.93;;;16.20;55.30;;;;;;4850525;29;20078;-66
2021/06/25 04:18:43;;;;;;;9.60;6.20;;;16.30;55.30;;;;;;4863927;29;20061;-67
2021/06/25 04:21:31;;;;;;;7.07;5.63;;;16.40;55.70;;;;;;4858572;29;20088;-67
2021/06/25 04:24:20;;;;;;;6.18;5.20;;;16.40;54.40;;;;;;4863992;29;20437;-66
2021/06/25 04:27:09;;;;;;;7.85;5.25;;;16.40;53.60;;;;;;4844972;29;20041;-67
2021/06/25 04:29:58;;;;;;;6.50;4.85;;;16.50;53.20;;;;;;4858444;29;20105;-67
2021/06/25 04:32:46;;;;;;;7.18;4.85;;;16.40;51.70;;;;;;4864288;29;20052;-66
2021/06/25 04:35:35;;;;;;;5.57;5.00;;;16.30;53.40;;;;;;4854095;29;20049;-66
2021/06/25 04:38:24;;;;;;;6.38;4.63;;;16.40;55.10;;;;;;4861599;29;20725;-68
2021/06/25 04:41:12;;;;;;;4.93;4.32;;;16.10;55.10;;;;;;4861763;29;20501;-68
2021/06/25 04:44:03;;;;;;;10.23;4.35;;;16.20;57.30;;;;;;4860943;29;20151;-67
2021/06/25 04:46:51;;;;;;;5.03;4.50;;;16.10;57.10;;;;;;4851790;29;20423;-67
2021/06/25 04:49:42;;;;;;;5.88;4.43;;;16.10;57.70;;;;;;4858459;29;20048;-67
2021/06/25 04:52:30;;;;;;;6.22;5.03;;;16.00;58.00;;;;;;4861637;29;20501;-66
2021/06/25 04:55:19;;;;;;;8.60;6.35;;;15.80;59.90;;;;;;4855276;29;20065;-67
2021/06/25 04:58:07;;;;;;;7.03;5.78;;;15.80;62.50;;;;;;4855734;29;20052;-67
2021/06/25 05:00:58;;;;;;;6.68;5.72;;;15.60;63.00;;;;;;4863274;29;20489;-67
2021/06/25 05:03:47;;;;;;;6.18;5.57;;;15.60;64.20;;;;;;4860448;29;20527;-67
2021/06/25 05:06:36;;;;;;;8.35;6.22;;;15.60;64.30;;;;;;4850639;29;20059;-67
2021/06/25 05:09:24;;;;;;;8.07;7.22;;;15.60;64.60;;;;;;4862931;29;20140;-67
2021/06/25 05:12:12;;;;;;;8.15;7.10;;;15.60;64.00;;;;;;4862897;29;20049;-67
2021/06/25 05:15:01;;;;;;;8.95;7.18;;;15.70;64.70;;;;;;4858535;29;20107;-67
2021/06/25 05:17:51;;;;;;;6.10;5.50;;;15.70;64.70;;;;;;4855502;29;20186;-68
2021/06/25 05:20:59;;;;;;;9.35;6.78;;;15.90;65.20;;;;;;4860538;29;20128;-68
2021/06/25 05:23:48;;;;;;;7.95;6.05;;;15.90;64.40;;;;;;4858161;29;20389;-68
2021/06/25 05:26:36;;;;;;;7.07;5.82;;;16.00;63.40;;;;;;4849264;29;20094;-67
2021/06/25 05:29:24;;;;;;;7.13;6.10;;;15.90;62.10;;;;;;4861724;29;20064;-68
2021/06/25 05:32:13;;;;;;;8.10;6.55;;;16.00;62.70;;;;;;4866516;29;20125;-68
2021/06/25 05:35:03;;;;;;;8.25;5.88;;;16.20;63.20;;;;;;4858143;29;20075;-68
2021/06/25 05:37:51;;;;;;;6.90;5.80;;;16.30;62.70;;;;;;4851731;29;20136;-69
2021/06/25 05:40:41;;;;;;;7.30;5.75;;;16.50;63.50;;;;;;4860125;29;20053;-67
2021/06/25 05:43:29;;;;;;;7.30;5.45;;;16.40;60.90;;;;;;4864570;29;20053;-68
2021/06/25 05:46:18;;;;;;;7.50;5.30;;;16.30;60.20;;;;;;4841830;29;20068;-68
2021/06/25 05:49:06;;;;;;;5.32;4.80;;;16.10;58.40;;;;;;4864815;29;20052;-68
2021/06/25 05:51:56;;;;;;;6.68;4.65;;;16.20;57.90;;;;;;4859545;29;20184;-68
2021/06/25 05:54:44;;;;;;;5.78;4.15;;;16.40;59.10;;;;;;4856108;29;20060;-67
2021/06/25 05:57:33;;;;;;;4.95;3.90;;;16.50;59.00;;;;;;4844670;29;20140;-67
2021/06/25 06:00:21;;;;;;;7.22;4.50;;;16.70;57.20;;;;;;4863934;29;20102;-67
2021/06/25 06:03:10;;;;;;;4.15;3.75;;;16.50;56.70;;;;;;4861928;29;20394;-68
2021/06/25 06:05:58;;;;;;;4.38;3.75;;;16.50;57.90;;;;;;4845917;29;20113;-67
2021/06/25 06:08:48;;;;;;;4.63;4.22;;;16.50;59.40;;;;;;4859525;29;20066;-67
2021/06/25 06:11:36;;;;;;;5.28;4.70;;;16.60;61.30;;;;;;4856622;29;20607;-67
2021/06/25 06:14:25;;;;;;;5.82;5.10;;;16.80;62.20;;;;;;4863982;29;20057;-68
2021/06/25 06:17:15;;;;;;;7.00;5.05;;;16.70;59.30;;;;;;4839856;29;20148;-67
2021/06/25 06:20:04;;;;;;;5.05;4.10;;;16.50;53.70;;;;;;4854324;29;20903;-68
2021/06/25 06:32:18;;;;;;;4.53;3.72;;;16.70;56.20;;;;;;4856141;29;20132;-67
2021/06/25 06:35:07;;;;;;;5.53;3.78;;;16.60;54.30;;;;;;4853883;29;20402;-66
2021/06/25 06:38:01;;;;;;;4.68;4.10;;;16.60;53.90;;;;;;4852001;29;20141;-68
2021/06/25 06:40:50;;;;;;;6.30;4.10;;;16.60;54.80;;;;;;4855100;29;20738;-67
2021/06/25 06:43:41;;;;;;;5.53;4.65;;;16.60;55.80;;;;;;4868565;29;20581;-67
2021/06/25 06:46:29;;;;;;;4.15;3.70;;;16.70;54.70;;;;;;4837716;29;20516;-69
2021/06/25 06:49:17;;;;;;;5.57;4.30;;;16.50;55.50;;;;;;4860508;29;20449;-67
2021/06/25 06:52:07;;;;;;;4.70;4.20;;;16.60;60.10;;;;;;4861156;29;20121;-67
2021/06/25 06:54:55;;;;;;;5.15;4.00;;;16.50;55.80;;;;;;4851828;29;20074;-67
2021/06/25 06:57:44;;;;;;;4.88;4.18;;;16.50;55.30;;;;;;4847902;29;20772;-68
2021/06/25 07:00:34;;;;;;;6.35;4.75;;;16.30;56.80;;;;;;4861336;29;20058;-66
2021/06/25 07:03:42;;;;;;;6.65;4.90;;;16.50;57.70;;;;;;4864073;29;20502;-67
2021/06/25 07:06:31;;;;;;;5.68;4.93;;;16.50;59.30;;;;;;4843209;29;20156;-67
2021/06/25 07:09:19;;;;;;;9.52;8.40;;;16.50;57.80;;;;;;4862222;29;20068;-68
2021/06/25 07:12:08;;;;;;;6.18;5.47;;;16.60;56.70;;;;;;4863976;29;21798;-67
2021/06/25 07:14:57;;;;;;;6.57;5.60;;;16.90;57.30;;;;;;4860915;29;20049;-67
2021/06/25 07:17:47;;;;;;;17.75;9.50;;;16.70;54.70;;;;;;4850178;29;20049;-67
2021/06/25 07:20:36;;;;;;;12.60;7.43;;;16.80;56.90;;;;;;4865162;29;20049;-67
2021/06/25 07:23:24;;;;;;;7.05;6.35;;;17.00;57.50;;;;;;4865778;29;20037;-67
2021/06/25 07:26:13;;;;;;;7.85;6.22;;;16.90;51.50;;;;;;4846365;29;20607;-67
2021/06/25 07:29:01;;;;;;;7.28;6.53;;;17.00;53.30;;;;;;4861300;29;20457;-67
2021/06/25 07:31:50;;;;;;;11.00;7.30;;;17.00;54.10;;;;;;4862185;29;20132;-67
2021/06/25 07:34:40;;;;;;;9.93;7.32;;;17.20;53.80;;;;;;4861663;29;20065;-67
2021/06/25 07:37:28;;;;;;;8.75;7.57;;;17.00;49.90;;;;;;4850734;29;20819;-67
2021/06/25 07:40:17;;;;;;;10.13;8.20;;;17.20;52.60;;;;;;4863510;29;20101;-66
2021/06/25 07:43:05;;;;;;;9.43;7.93;;;17.50;51.20;;;;;;4864895;29;20045;-67
2021/06/25 07:45:54;;;;;;;10.10;7.55;;;17.80;49.80;;;;;;4855232;29;20061;-67
2021/06/25 07:48:42;;;;;;;11.75;7.68;;;17.40;47.10;;;;;;4864742;29;20097;-67
2021/06/25 07:51:33;;;;;;;8.35;7.45;;;17.70;48.70;;;;;;4858715;29;20596;-67
2021/06/25 07:54:21;;;;;;;7.90;6.28;;;17.90;45.80;;;;;;4858998;29;20087;-67
2021/06/25 07:57:10;;;;;;;6.30;4.93;;;17.70;47.10;;;;;;4840024;29;20141;-67
2021/06/25 07:59:58;;;;;;;6.43;5.28;;;17.70;45.10;;;;;;4861903;29;20072;-67
2021/06/25 08:02:46;;;;;;;5.22;4.43;;;17.50;43.50;;;;;;4864704;29;20128;-67
2021/06/25 08:05:35;;;;;;;5.38;4.82;;;17.70;43.90;;;;;;4853773;29;20413;-67
2021/06/25 08:08:25;;;;;;;3.72;3.40;;;17.90;38.80;;;;;;4851873;29;20057;-67
2021/06/25 08:11:13;;;;;;;3.72;3.17;;;17.80;36.90;;;;;;4861616;29;20532;-67
2021/06/25 08:14:02;;;;;;;5.10;2.63;;;18.00;35.60;;;;;;4863217;29;20129;-68
2021/06/25 08:16:50;;;;;;;2.45;2.00;;;18.40;35.40;;;;;;4842819;29;20444;-67
2021/06/25 08:19:40;;;;;;;2.75;1.80;;;18.20;34.50;;;;;;4858970;29;20071;-67
2021/06/25 08:22:29;;;;;;;3.90;1.85;;;18.00;35.60;;;;;;4863982;29;20125;-67
2021/06/25 08:25:19;;;;;;;2.50;1.73;;;17.60;37.00;;;;;;4854241;29;20076;-68
2021/06/25 08:28:07;;;;;;;2.25;1.90;;;16.80;43.10;;;;;;4850768;29;20069;-67
2021/06/25 08:30:55;;;;;;;2.40;2.00;;;16.80;49.00;;;;;;4858935;29;20519;-66
2021/06/25 08:33:44;;;;;;;3.17;2.55;;;16.80;50.30;;;;;;4854461;29;20057;-67
2021/06/25 08:36:33;;;;;;;2.50;2.05;;;16.70;53.40;;;;;;4840750;29;20842;-66
2021/06/25 08:39:25;;;;;;;2.75;2.20;;;16.60;56.40;;;;;;4864688;29;20160;-66
2021/06/25 08:42:15;;;;;;;3.50;2.17;;;16.80;56.60;;;;;;4859493;29;20041;-67
2021/06/25 08:45:05;;;;;;;2.00;1.60;;;16.70;57.80;;;;;;4853575;29;20196;-68
2021/06/25 08:47:53;;;;;;;2.13;1.92;;;16.40;57.40;;;;;;4845889;29;20059;-68
2021/06/25 08:50:57;;;;;;;3.20;2.28;;;16.50;58.50;;;;;;4862181;29;20049;-67
2021/06/25 08:53:45;;;;;;;2.13;1.85;;;16.50;58.50;;;;;;4866392;29;20049;-67
2021/06/25 08:56:34;;;;;;;3.15;2.30;;;16.40;59.20;;;;;;4843458;29;20068;-67
2021/06/25 08:59:24;;;;;;;4.85;2.00;;;16.30;59.90;;;;;;4861870;29;20054;-68
2021/06/25 09:02:14;;;;;;;4.43;2.72;;;16.10;61.20;;;;;;4855383;29;20094;-67
2021/06/25 09:05:04;;;;;;;2.97;2.53;;;16.20;63.10;;;;;;4853118;29;20074;-67
2021/06/25 09:07:54;;;;;;;3.78;3.28;;;16.20;61.60;;;;;;4855339;29;20053;-65
2021/06/25 09:10:42;;;;;;;4.70;3.55;;;16.20;61.40;;;;;;4859818;29;20140;-67
2021/06/25 09:13:36;;;;;;;5.15;4.18;;;16.20;59.80;;;;;;4857413;29;20189;-67
2021/06/25 09:16:27;;;;;;;8.52;5.78;;;15.90;60.90;;;;;;4844088;29;20061;-67
2021/06/25 09:19:17;;;;;;;7.43;5.88;;;15.90;60.90;;;;;;4861930;29;20382;-66
2021/06/25 09:22:06;;;;;;;9.10;6.78;;;16.00;62.60;;;;;;4857356;29;20113;-67
2021/06/25 09:25:05;;;;;;;10.65;7.40;;;16.00;61.30;;;;;;4859770;29;20886;-67
2021/06/25 09:27:56;;;;;;;9.85;7.25;;;16.00;60.90;;;;;;4833329;29;20042;-66
2021/06/25 09:30:45;;;;;;;10.27;7.70;;;15.80;60.00;;;;;;4858736;29;20453;-67
2021/06/25 09:33:43;;;;;;;10.93;8.15;;;15.80;62.00;;;;;;4862980;29;20121;-67
2021/06/25 09:36:35;;;;;;;11.57;8.90;;;15.90;62.80;;;;;;4842470;29;20520;-68
2021/06/25 09:39:27;;;;;;;12.50;9.27;;;15.80;63.60;;;;;;4862313;29;20564;-67
2021/06/25 09:42:19;;;;;;;19.85;10.60;;;15.80;64.50;;;;;;4856807;29;20237;-67
2021/06/25 09:45:09;;;;;;;17.08;10.05;;;16.00;65.30;;;;;;4855473;29;20520;-67
2021/06/25 09:47:57;;;;;;;14.32;10.73;;;15.90;64.30;;;;;;4850051;29;20044;-67
2021/06/25 09:50:47;;;;;;;15.73;10.60;;;16.10;65.90;;;;;;4859885;29;20192;-67
2021/06/25 09:53:36;;;;;;;17.38;12.27;;;16.00;63.00;;;;;;4854714;29;20300;-67
2021/06/25 09:56:25;;;;;;;15.90;10.98;;;16.20;62.50;;;;;;4844599;29;20060;-68
2021/06/25 09:59:31;;;;;;;15.43;11.70;;;16.00;61.00;;;;;;4861625;29;20045;-67
2021/06/25 10:02:26;;;;;;;18.08;12.55;;;16.40;63.50;;;;;;4856553;29;20068;-68
2021/06/25 10:05:15;;;;;;;17.83;11.80;;;16.50;62.50;;;;;;4854481;29;20065;-66
2021/06/25 10:08:05;;;;;;;16.95;12.15;;;16.60;59.40;;;;;;4847860;29;20073;-68
2021/06/25 10:10:54;;;;;;;16.63;11.40;;;16.60;56.90;;;;;;4859485;29;20163;-67
2021/06/25 10:13:44;;;;;;;15.38;11.80;;;16.50;56.60;;;;;;4855970;29;20136;-68
2021/06/25 10:16:35;;;;;;;16.10;12.35;;;16.80;58.70;;;;;;4836696;29;20136;-68
2021/06/25 10:19:36;;;;;;;18.50;12.30;;;16.60;57.40;;;;;;4864876;29;20045;-67
2021/06/25 10:22:27;;;;;;;16.85;12.25;;;16.60;54.00;;;;;;4859285;29;20080;-68
2021/06/25 10:25:17;;;;;;;19.42;13.00;;;16.80;59.50;;;;;;4858361;29;20136;-68
2021/06/25 10:28:06;;;;;;;19.75;13.02;;;16.70;57.00;;;;;;4849964;29;20545;-67
2021/06/25 10:30:54;;;;;;;24.58;14.25;;;16.50;56.20;;;;;;4857854;29;20118;-68
2021/06/25 10:33:46;;;;;;;21.30;15.18;;;16.50;57.70;;;;;;4860639;29;20045;-68
2021/06/25 10:36:36;;;;;;;23.80;16.60;;;16.50;55.40;;;;;;4836867;29;20065;-68
2021/06/25 10:39:25;;;;;;;21.95;15.77;;;16.70;58.80;;;;;;4856336;29;20063;-67
2021/06/25 10:42:15;;;;;;;22.13;15.85;;;16.60;55.30;;;;;;4855151;29;20297;-68
2021/06/25 10:45:04;;;;;;;26.15;16.25;;;16.70;54.60;;;;;;4856880;29;20137;-67
2021/06/25 10:47:53;;;;;;;21.23;14.68;;;17.00;55.80;;;;;;4847468;29;20116;-67
2021/06/25 10:50:47;;;;;;;21.65;14.88;;;16.80;51.60;;;;;;4865010;29;20057;-67
2021/06/25 10:53:36;;;;;;;22.08;15.02;;;17.00;52.50;;;;;;4862202;29;20522;-68
2021/06/25 10:56:28;;;;;;;22.30;15.43;;;17.30;49.70;;;;;;4846928;29;20506;-68
2021/06/25 10:59:22;;;;;;;23.60;17.63;;;17.40;50.30;;;;;;4863599;29;20136;-67
2021/06/25 11:02:11;;;;;;;23.80;16.70;;;17.50;45.70;;;;;;4859299;29;20056;-68
2021/06/25 11:05:00;;;;;;;25.20;17.40;;;17.70;40.00;;;;;;4857458;29;20110;-68
2021/06/25 11:07:50;;;;;;;21.90;16.67;;;17.50;43.70;;;;;;4862428;29;20045;-67
2021/06/25 11:10:39;;;;;;;26.17;16.98;;;17.70;40.90;;;;;;4877677;29;20044;-67
2021/06/25 11:13:29;;;;;;;22.48;16.67;;;17.50;40.90;;;;;;4847556;29;20171;-68
2021/06/25 11:16:23;;;;;;;21.42;15.98;;;17.80;45.20;;;;;;4844282;29;20741;-67
2021/06/25 11:19:33;;;;;;;24.48;17.05;;;17.90;38.60;;;;;;4863523;29;20058;-68
2021/06/25 11:22:39;;;;;;;24.42;16.83;;;17.90;36.90;;;;;;4858016;29;20045;-67
2021/06/25 11:25:39;;;;;;;21.35;15.85;;;18.00;42.20;;;;;;4854086;29;20045;-67
2021/06/25 11:28:40;;;;;;;22.38;14.95;;;17.90;44.10;;;;;;4855234;29;20173;-68
2021/06/25 11:31:30;;;;;;;18.77;14.63;;;17.90;36.30;;;;;;4860533;29;20488;-68
2021/06/25 11:34:30;;;;;;;17.13;12.55;;;18.30;35.00;;;;;;4862562;29;20049;-68
2021/06/25 11:37:19;;;;;;;16.10;12.55;;;18.10;31.30;;;;;;4841612;29;20151;-67
2021/06/25 11:40:08;;;;;;;14.20;11.82;;;18.40;31.50;;;;;;4860353;29;20056;-68
2021/06/25 11:42:59;;;;;;;16.17;12.20;;;18.30;30.40;;;;;;4860054;29;20197;-68
2021/06/25 11:45:50;;;;;;;15.52;11.30;;;19.20;28.40;;;;;;4851822;29;20591;-67
2021/06/25 11:48:44;;;;;;;16.90;10.77;;;19.30;26.40;;;;;;4858997;29;20252;-68
2021/06/25 11:51:38;;;;;;;15.77;11.30;;;18.40;26.50;;;;;;4864691;29;20157;-67
2021/06/25 11:54:27;;;;;;;12.52;9.80;;;19.20;27.10;;;;;;4865040;29;20208;-68
2021/06/25 11:57:19;;;;;;;12.20;8.82;;;19.50;20.60;;;;;;4847642;29;20140;-68
2021/06/25 12:00:10;;;;;;;10.10;8.43;;;19.00;21.10;;;;;;4862609;29;20056;-68
2021/06/25 12:03:06;;;;;;;12.70;8.77;;;19.10;23.30;;;;;;4859834;29;20521;-68
2021/06/25 12:06:05;;;;;;;13.52;10.05;;;19.40;22.90;;;;;;4851006;29;20064;-67
2021/06/25 12:08:55;;;;;;;13.10;8.98;;;19.50;18.00;;;;;;4861735;29;20483;-68
2021/06/25 12:11:44;;;;;;;12.38;9.75;;;19.90;14.80;;;;;;4861749;29;20072;-68
2021/06/25 12:14:42;;;;;;;13.60;10.30;;;19.00;17.60;;;;;;4870932;29;20049;-67
2021/06/25 12:17:44;;;;;;;14.25;10.45;;;19.20;18.90;;;;;;4853694;29;20069;-66
2021/06/25 12:20:33;;;;;;;11.52;9.95;;;18.70;21.60;;;;;;4862669;29;20076;-68
2021/06/25 12:23:23;;;;;;;11.32;9.85;;;19.10;18.80;;;;;;4861026;29;20060;-68
2021/06/25 12:26:15;;;;;;;12.90;10.05;;;19.30;21.20;;;;;;4851085;29;20513;-67
2021/06/25 12:29:05;;;;;;;14.50;10.73;;;19.70;18.00;;;;;;4861896;29;20536;-67
2021/06/25 12:31:53;;;;;;;11.93;10.02;;;19.10;17.70;;;;;;4862373;29;21780;-67
2021/06/25 12:34:42;;;;;;;12.48;10.73;;;18.90;20.00;;;;;;4859582;29;20045;-67
2021/06/25 12:37:49;;;;;;;12.90;10.20;;;18.80;18.50;;;;;;4849361;29;20084;-66
2021/06/25 12:40:45;;;;;;;12.75;9.90;;;19.80;17.80;;;;;;4864391;29;20585;-66
2021/06/25 12:43:36;;;;;;;15.48;11.25;;;19.50;12.20;;;;;;4863586;29;20085;-68
2021/06/25 12:46:25;;;;;;;13.75;11.57;;;19.70;13.60;;;;;;4848859;29;20058;-67
2021/06/25 12:49:19;;;;;;;16.95;11.18;;;19.70;13.00;;;;;;4865692;29;20465;-68
2021/06/25 12:52:23;;;;;;;11.73;9.73;;;19.80;13.40;;;;;;4861143;29;20049;-68
2021/06/25 12:55:12;;;;;;;10.60;8.82;;;20.00;15.20;;;;;;4860620;29;20272;-68
2021/06/25 12:58:01;;;;;;;11.52;8.60;;;19.50;12.10;;;;;;4851787;29;20152;-67
2021/06/25 13:00:58;;;;;;;10.80;8.10;;;19.60;11.90;;;;;;4858973;29;20500;-67
2021/06/25 13:03:47;;;;;;;9.23;7.63;;;19.40;11.90;;;;;;4860709;29;20041;-66
2021/06/25 13:06:37;;;;;;;10.98;8.00;;;19.60;10.70;;;;;;4847231;29;20052;-67
2021/06/25 13:09:28;;;;;;;8.93;7.80;;;20.10;11.10;;;;;;4870958;29;21279;-68
2021/06/25 13:12:19;;;;;;;9.90;7.65;;;20.10;10.00;;;;;;4864130;29;20049;-69
2021/06/25 13:15:11;;;;;;;10.25;7.35;;;19.90;10.10;;;;;;4851816;29;20925;-69
2021/06/25 13:18:01;;;;;;;10.32;8.18;;;19.50;9.50;;;;;;4849544;29;20286;-68
2021/06/25 13:21:27;;;;;;;9.15;7.72;;;19.90;9.50;;;;;;4864339;29;20580;-68
2021/06/25 13:24:46;;;;;;;9.90;8.32;;;20.20;8.50;;;;;;4861821;29;20159;-67
2021/06/25 13:27:37;;;;;;;10.52;8.05;;;19.50;7.40;;;;;;4848579;29;20057;-67
2021/06/25 13:30:28;;;;;;;12.63;9.13;;;19.90;8.60;;;;;;4858629;29;20057;-68
2021/06/25 13:33:17;;;;;;;11.30;9.23;;;19.90;7.80;;;;;;4858084;29;20056;-68
2021/06/25 13:36:09;;;;;;;10.77;9.10;;;19.50;9.10;;;;;;4846253;29;20044;-67
2021/06/25 13:39:08;;;;;;;14.18;9.18;;;20.20;7.30;;;;;;4852448;29;20133;-67
2021/06/25 13:41:57;;;;;;;12.63;10.32;;;19.80;7.00;;;;;;4859250;29;20104;-67
2021/06/25 13:44:45;;;;;;;14.10;10.77;;;19.40;8.10;;;;;;4860717;29;20044;-69
2021/06/25 13:47:36;;;;;;;13.70;10.68;;;19.70;7.00;;;;;;4847688;29;20069;-68
2021/06/25 13:50:25;;;;;;;11.65;9.73;;;19.20;9.30;;;;;;4855156;29;20081;-68
2021/06/25 13:53:35;;;;;;;11.70;10.15;;;19.90;8.80;;;;;;4857944;29;20757;-68
2021/06/25 13:56:25;;;;;;;10.38;9.13;;;19.90;7.20;;;;;;4845595;29;20681;-67
2021/06/25 13:59:14;;;;;;;13.65;10.93;;;19.10;8.80;;;;;;4861503;29;20056;-68
2021/06/25 14:02:02;;;;;;;11.55;9.52;;;19.80;7.10;;;;;;4860471;29;20081;-67
2021/06/25 14:04:52;;;;;;;10.90;9.18;;;20.10;5.20;;;;;;4859634;29;20078;-68
2021/06/25 14:07:41;;;;;;;13.13;9.95;;;20.20;3.80;;;;;;4849407;29;20053;-67
2021/06/25 14:10:31;;;;;;;12.25;10.02;;;19.20;6.60;;;;;;4862733;29;20089;-69
2021/06/25 14:13:34;;;;;;;13.80;10.10;;;19.80;7.90;;;;;;4861588;29;20508;-69
2021/06/25 14:16:25;;;;;;;13.82;10.20;;;19.60;6.60;;;;;;4844049;29;20054;-68
2021/06/25 14:19:16;;;;;;;11.15;9.75;;;20.20;4.80;;;;;;4876297;29;20417;-68
2021/06/25 14:22:37;;;;;;;11.75;9.90;;;20.70;3.80;;;;;;4860245;29;20185;-67
2021/06/25 14:25:26;;;;;;;11.65;9.80;;;20.60;4.50;;;;;;4855210;29;20049;-68
2021/06/25 14:28:24;;;;;;;12.25;9.40;;;20.60;2.60;;;;;;4849849;29;20116;-68
2021/06/25 14:31:13;;;;;;;15.10;9.55;;;21.10;1.00;;;;;;4861358;29;20132;-67
2021/06/25 14:34:02;;;;;;;12.75;9.73;;;21.70;1.00;;;;;;4856444;29;20052;-70
2021/06/25 14:36:51;;;;;;;11.25;9.20;;;20.80;1.00;;;;;;4835394;29;20057;-67
2021/06/25 14:39:44;;;;;;;11.23;9.40;;;21.10;1.00;;;;;;4845367;29;20045;-68
2021/06/25 14:42:34;;;;;;;11.57;8.75;;;20.90;1.00;;;;;;4846508;29;20080;-67
2021/06/25 14:45:26;;;;;;;10.25;8.55;;;21.60;1.00;;;;;;4835545;29;20038;-68
2021/06/25 14:48:15;;;;;;;11.20;8.05;;;21.60;1.00;;;;;;4809677;29;20197;-69
2021/06/25 14:51:04;;;;;;;10.77;8.02;;;21.60;1.00;;;;;;4862395;29;20081;-68
2021/06/25 14:53:53;;;;;;;10.80;8.65;;;21.10;1.00;;;;;;4865651;29;20124;-67